sensor_id;sensor_type;location;lat;lon;timestamp;P1;durP1;ratioP1;P2;durP2;ratioP2
29120;SDS011;16191;49.548;8.658;2023-03-15T00:00:17;9.82;;;3.60;;
29120;SDS011;16191;49.548;8.658;2023-03-15T00:02:44;12.07;;;3.65;;
29120;SDS011;16191;49.548;8.658;2023-03-15T00:05:11;13.07;;;3.90;;
29120;SDS011;16191;49.548;8.658;2023-03-15T00:07:38;10.80;;;4.38;;
29120;SDS011;16191;49.548;8.658;2023-03-15T00:10:04;8.48;;;3.90;;
29120;SDS011;16191;49.548;8.658;2023-03-15T00:12:31;13.13;;;4.43;;
29120;SDS011;16191;49.548;8.658;2023-03-15T00:14:59;15.10;;;4.15;;
29120;SDS011;16191;49.548;8.658;2023-03-15T00:17:26;13.27;;;4.18;;
29120;SDS011;16191;49.548;8.658;2023-03-15T00:19:52;14.80;;;4.43;;
29120;SDS011;16191;49.548;8.658;2023-03-15T00:22:19;9.05;;;4.00;;
29120;SDS011;16191;49.548;8.658;2023-03-15T00:24:48;12.83;;;4.63;;
29120;SDS011;16191;49.548;8.658;2023-03-15T00:27:15;12.10;;;4.10;;
29120;SDS011;16191;49.548;8.658;2023-03-15T00:29:41;9.90;;;3.85;;
29120;SDS011;16191;49.548;8.658;2023-03-15T00:32:08;14.75;;;4.63;;
29120;SDS011;16191;49.548;8.658;2023-03-15T00:34:34;15.52;;;4.25;;
29120;SDS011;16191;49.548;8.658;2023-03-15T00:37:01;10.35;;;3.97;;
29120;SDS011;16191;49.548;8.658;2023-03-15T00:39:28;11.93;;;3.65;;
29120;SDS011;16191;49.548;8.658;2023-03-15T00:41:54;7.10;;;3.17;;
29120;SDS011;16191;49.548;8.658;2023-03-15T00:44:22;6.53;;;2.78;;
29120;SDS011;16191;49.548;8.658;2023-03-15T00:46:49;11.98;;;3.42;;
29120;SDS011;16191;49.548;8.658;2023-03-15T00:49:16;12.15;;;4.38;;
29120;SDS011;16191;49.548;8.658;2023-03-15T00:51:43;12.10;;;3.60;;
29120;SDS011;16191;49.548;8.658;2023-03-15T00:54:10;10.32;;;3.35;;
29120;SDS011;16191;49.548;8.658;2023-03-15T00:56:39;8.65;;;3.28;;
29120;SDS011;16191;49.548;8.658;2023-03-15T00:59:06;16.90;;;2.47;;
29120;SDS011;16191;49.548;8.658;2023-03-15T01:01:33;10.55;;;2.67;;
29120;SDS011;16191;49.548;8.658;2023-03-15T01:04:02;7.32;;;2.88;;
29120;SDS011;16191;49.548;8.658;2023-03-15T01:06:30;5.07;;;2.28;;
29120;SDS011;16191;49.548;8.658;2023-03-15T01:08:58;10.77;;;2.85;;
29120;SDS011;16191;49.548;8.658;2023-03-15T01:11:25;9.60;;;2.72;;
29120;SDS011;16191;49.548;8.658;2023-03-15T01:13:54;8.93;;;2.35;;
29120;SDS011;16191;49.548;8.658;2023-03-15T01:16:22;10.68;;;3.08;;
29120;SDS011;16191;49.548;8.658;2023-03-15T01:18:50;11.05;;;2.83;;
29120;SDS011;16191;49.548;8.658;2023-03-15T01:21:18;8.65;;;2.85;;
29120;SDS011;16191;49.548;8.658;2023-03-15T01:23:46;10.80;;;2.33;;
29120;SDS011;16191;49.548;8.658;2023-03-15T01:26:14;9.82;;;2.92;;
29120;SDS011;16191;49.548;8.658;2023-03-15T01:28:42;13.57;;;2.90;;
29120;SDS011;16191;49.548;8.658;2023-03-15T01:31:13;11.73;;;2.80;;
29120;SDS011;16191;49.548;8.658;2023-03-15T01:33:44;16.65;;;2.50;;
29120;SDS011;16191;49.548;8.658;2023-03-15T01:36:11;10.23;;;2.83;;
29120;SDS011;16191;49.548;8.658;2023-03-15T01:38:39;8.18;;;2.38;;
29120;SDS011;16191;49.548;8.658;2023-03-15T01:41:07;9.15;;;2.58;;
29120;SDS011;16191;49.548;8.658;2023-03-15T01:43:35;10.98;;;2.47;;
29120;SDS011;16191;49.548;8.658;2023-03-15T01:49:16;6.60;;;2.42;;
29120;SDS011;16191;49.548;8.658;2023-03-15T01:51:59;9.93;;;2.40;;
29120;SDS011;16191;49.548;8.658;2023-03-15T01:54:42;11.43;;;2.70;;
29120;SDS011;16191;49.548;8.658;2023-03-15T01:57:17;5.65;;;2.60;;
29120;SDS011;16191;49.548;8.658;2023-03-15T01:59:59;13.48;;;2.92;;
29120;SDS011;16191;49.548;8.658;2023-03-15T02:02:42;9.57;;;2.03;;
29120;SDS011;16191;49.548;8.658;2023-03-15T02:05:20;12.80;;;2.40;;
29120;SDS011;16191;49.548;8.658;2023-03-15T02:07:51;8.15;;;2.17;;
29120;SDS011;16191;49.548;8.658;2023-03-15T02:10:41;8.60;;;2.42;;
29120;SDS011;16191;49.548;8.658;2023-03-15T02:13:12;7.22;;;2.35;;
29120;SDS011;16191;49.548;8.658;2023-03-15T02:15:40;7.18;;;2.40;;
29120;SDS011;16191;49.548;8.658;2023-03-15T02:18:16;11.70;;;3.03;;
29120;SDS011;16191;49.548;8.658;2023-03-15T02:20:54;8.02;;;2.25;;
29120;SDS011;16191;49.548;8.658;2023-03-15T02:23:36;10.65;;;2.97;;
29120;SDS011;16191;49.548;8.658;2023-03-15T02:28:38;7.47;;;2.70;;
29120;SDS011;16191;49.548;8.658;2023-03-15T02:31:06;6.43;;;2.38;;
29120;SDS011;16191;49.548;8.658;2023-03-15T02:33:53;10.88;;;2.90;;
29120;SDS011;16191;49.548;8.658;2023-03-15T02:36:42;10.40;;;2.97;;
29120;SDS011;16191;49.548;8.658;2023-03-15T02:39:29;12.60;;;3.40;;
29120;SDS011;16191;49.548;8.658;2023-03-15T02:42:17;10.57;;;3.15;;
29120;SDS011;16191;49.548;8.658;2023-03-15T02:45:04;7.55;;;3.45;;
29120;SDS011;16191;49.548;8.658;2023-03-15T02:47:52;11.30;;;3.20;;
29120;SDS011;16191;49.548;8.658;2023-03-15T02:50:19;8.57;;;3.65;;
29120;SDS011;16191;49.548;8.658;2023-03-15T02:52:45;9.50;;;3.38;;
29120;SDS011;16191;49.548;8.658;2023-03-15T02:55:12;12.68;;;3.30;;
29120;SDS011;16191;49.548;8.658;2023-03-15T02:57:39;9.07;;;2.95;;
29120;SDS011;16191;49.548;8.658;2023-03-15T03:00:05;8.75;;;2.85;;
29120;SDS011;16191;49.548;8.658;2023-03-15T03:02:40;10.23;;;2.92;;
29120;SDS011;16191;49.548;8.658;2023-03-15T03:05:10;10.07;;;3.00;;
29120;SDS011;16191;49.548;8.658;2023-03-15T03:07:37;12.57;;;3.45;;
29120;SDS011;16191;49.548;8.658;2023-03-15T03:10:06;11.32;;;3.22;;
29120;SDS011;16191;49.548;8.658;2023-03-15T03:12:42;13.95;;;2.60;;
29120;SDS011;16191;49.548;8.658;2023-03-15T03:15:09;15.82;;;2.80;;
29120;SDS011;16191;49.548;8.658;2023-03-15T03:17:36;9.57;;;2.92;;
29120;SDS011;16191;49.548;8.658;2023-03-15T03:20:08;9.63;;;2.42;;
29120;SDS011;16191;49.548;8.658;2023-03-15T03:22:41;9.63;;;2.72;;
29120;SDS011;16191;49.548;8.658;2023-03-15T03:25:10;16.50;;;3.73;;
29120;SDS011;16191;49.548;8.658;2023-03-15T03:27:38;6.95;;;2.33;;
29120;SDS011;16191;49.548;8.658;2023-03-15T03:30:09;12.25;;;3.03;;
29120;SDS011;16191;49.548;8.658;2023-03-15T03:32:39;9.40;;;2.78;;
29120;SDS011;16191;49.548;8.658;2023-03-15T03:35:07;14.85;;;2.50;;
29120;SDS011;16191;49.548;8.658;2023-03-15T03:37:34;12.70;;;2.72;;
29120;SDS011;16191;49.548;8.658;2023-03-15T03:40:06;10.80;;;2.42;;
29120;SDS011;16191;49.548;8.658;2023-03-15T03:42:34;5.57;;;1.95;;
29120;SDS011;16191;49.548;8.658;2023-03-15T03:45:02;8.20;;;2.20;;
29120;SDS011;16191;49.548;8.658;2023-03-15T03:47:34;18.27;;;2.47;;
29120;SDS011;16191;49.548;8.658;2023-03-15T03:50:00;11.43;;;2.42;;
29120;SDS011;16191;49.548;8.658;2023-03-15T03:52:27;13.35;;;2.55;;
29120;SDS011;16191;49.548;8.658;2023-03-15T03:55:01;5.40;;;1.95;;
29120;SDS011;16191;49.548;8.658;2023-03-15T03:57:29;9.55;;;2.30;;
29120;SDS011;16191;49.548;8.658;2023-03-15T03:59:55;9.07;;;2.42;;
29120;SDS011;16191;49.548;8.658;2023-03-15T04:02:24;11.05;;;2.45;;
29120;SDS011;16191;49.548;8.658;2023-03-15T04:05:00;6.78;;;2.30;;
29120;SDS011;16191;49.548;8.658;2023-03-15T04:07:27;9.05;;;2.50;;
29120;SDS011;16191;49.548;8.658;2023-03-15T04:09:55;10.35;;;2.33;;
29120;SDS011;16191;49.548;8.658;2023-03-15T04:12:21;6.55;;;2.17;;
29120;SDS011;16191;49.548;8.658;2023-03-15T04:14:51;6.47;;;2.80;;
29120;SDS011;16191;49.548;8.658;2023-03-15T04:17:20;8.73;;;1.98;;
29120;SDS011;16191;49.548;8.658;2023-03-15T04:19:46;6.63;;;2.30;;
29120;SDS011;16191;49.548;8.658;2023-03-15T04:22:18;4.88;;;2.00;;
29120;SDS011;16191;49.548;8.658;2023-03-15T04:24:59;5.50;;;2.08;;
29120;SDS011;16191;49.548;8.658;2023-03-15T04:27:38;8.30;;;2.22;;
29120;SDS011;16191;49.548;8.658;2023-03-15T04:30:08;12.57;;;2.50;;
29120;SDS011;16191;49.548;8.658;2023-03-15T04:33:04;9.77;;;1.92;;
29120;SDS011;16191;49.548;8.658;2023-03-15T04:35:45;8.63;;;1.98;;
29120;SDS011;16191;49.548;8.658;2023-03-15T04:38:24;12.73;;;2.47;;
29120;SDS011;16191;49.548;8.658;2023-03-15T04:41:18;6.72;;;1.98;;
29120;SDS011;16191;49.548;8.658;2023-03-15T04:44:03;6.63;;;2.55;;
29120;SDS011;16191;49.548;8.658;2023-03-15T04:46:49;10.20;;;2.60;;
29120;SDS011;16191;49.548;8.658;2023-03-15T04:49:38;10.57;;;2.70;;
29120;SDS011;16191;49.548;8.658;2023-03-15T04:52:23;7.80;;;2.50;;
29120;SDS011;16191;49.548;8.658;2023-03-15T04:55:05;14.85;;;2.60;;
29120;SDS011;16191;49.548;8.658;2023-03-15T04:57:44;10.88;;;2.63;;
29120;SDS011;16191;49.548;8.658;2023-03-15T05:00:22;9.88;;;2.88;;
29120;SDS011;16191;49.548;8.658;2023-03-15T05:03:04;9.90;;;2.30;;
29120;SDS011;16191;49.548;8.658;2023-03-15T05:05:50;10.52;;;2.97;;
29120;SDS011;16191;49.548;8.658;2023-03-15T05:08:39;15.25;;;3.42;;
29120;SDS011;16191;49.548;8.658;2023-03-15T05:11:29;17.92;;;2.83;;
29120;SDS011;16191;49.548;8.658;2023-03-15T05:14:34;13.98;;;3.33;;
29120;SDS011;16191;49.548;8.658;2023-03-15T05:17:19;13.73;;;3.55;;
29120;SDS011;16191;49.548;8.658;2023-03-15T05:20:11;14.45;;;3.72;;
29120;SDS011;16191;49.548;8.658;2023-03-15T05:22:50;11.32;;;3.67;;
29120;SDS011;16191;49.548;8.658;2023-03-15T05:25:41;9.95;;;2.90;;
29120;SDS011;16191;49.548;8.658;2023-03-15T05:28:37;12.82;;;3.47;;
29120;SDS011;16191;49.548;8.658;2023-03-15T05:31:21;13.18;;;3.67;;
29120;SDS011;16191;49.548;8.658;2023-03-15T05:34:09;13.65;;;4.00;;
29120;SDS011;16191;49.548;8.658;2023-03-15T05:36:40;10.70;;;3.83;;
29120;SDS011;16191;49.548;8.658;2023-03-15T05:39:27;18.30;;;3.67;;
29120;SDS011;16191;49.548;8.658;2023-03-15T05:42:07;13.07;;;4.43;;
29120;SDS011;16191;49.548;8.658;2023-03-15T05:44:52;13.95;;;3.50;;
29120;SDS011;16191;49.548;8.658;2023-03-15T05:47:37;11.38;;;3.88;;
29120;SDS011;16191;49.548;8.658;2023-03-15T05:50:08;18.45;;;4.40;;
29120;SDS011;16191;49.548;8.658;2023-03-15T05:52:53;9.15;;;3.90;;
29120;SDS011;16191;49.548;8.658;2023-03-15T05:55:29;15.32;;;3.97;;
29120;SDS011;16191;49.548;8.658;2023-03-15T05:58:06;12.43;;;4.47;;
29120;SDS011;16191;49.548;8.658;2023-03-15T06:00:42;11.23;;;4.43;;
29120;SDS011;16191;49.548;8.658;2023-03-15T06:03:21;14.07;;;4.35;;
29120;SDS011;16191;49.548;8.658;2023-03-15T06:05:57;10.10;;;3.88;;
29120;SDS011;16191;49.548;8.658;2023-03-15T06:08:33;16.77;;;4.20;;
29120;SDS011;16191;49.548;8.658;2023-03-15T06:10:59;13.85;;;4.57;;
29120;SDS011;16191;49.548;8.658;2023-03-15T06:13:26;17.58;;;4.32;;
29120;SDS011;16191;49.548;8.658;2023-03-15T06:15:53;10.18;;;4.38;;
29120;SDS011;16191;49.548;8.658;2023-03-15T06:18:20;15.88;;;5.10;;
29120;SDS011;16191;49.548;8.658;2023-03-15T06:20:48;12.57;;;4.88;;
29120;SDS011;16191;49.548;8.658;2023-03-15T06:23:16;16.27;;;4.38;;
29120;SDS011;16191;49.548;8.658;2023-03-15T06:25:44;13.52;;;3.92;;
29120;SDS011;16191;49.548;8.658;2023-03-15T06:28:12;9.70;;;4.03;;
29120;SDS011;16191;49.548;8.658;2023-03-15T06:30:44;12.75;;;3.90;;
29120;SDS011;16191;49.548;8.658;2023-03-15T06:33:11;13.13;;;3.83;;
29120;SDS011;16191;49.548;8.658;2023-03-15T06:35:38;10.40;;;4.38;;
29120;SDS011;16191;49.548;8.658;2023-03-15T06:38:05;11.27;;;3.88;;
29120;SDS011;16191;49.548;8.658;2023-03-15T06:40:31;16.15;;;4.63;;
29120;SDS011;16191;49.548;8.658;2023-03-15T06:42:58;15.88;;;5.32;;
29120;SDS011;16191;49.548;8.658;2023-03-15T06:45:29;10.35;;;4.28;;
29120;SDS011;16191;49.548;8.658;2023-03-15T06:47:57;14.55;;;4.63;;
29120;SDS011;16191;49.548;8.658;2023-03-15T06:50:24;14.82;;;4.40;;
29120;SDS011;16191;49.548;8.658;2023-03-15T06:52:52;12.93;;;4.70;;
29120;SDS011;16191;49.548;8.658;2023-03-15T06:55:19;13.18;;;4.50;;
29120;SDS011;16191;49.548;8.658;2023-03-15T06:57:46;10.68;;;4.68;;
29120;SDS011;16191;49.548;8.658;2023-03-15T07:00:12;13.30;;;4.85;;
29120;SDS011;16191;49.548;8.658;2023-03-15T07:02:39;12.32;;;4.43;;
29120;SDS011;16191;49.548;8.658;2023-03-15T07:05:06;13.82;;;4.00;;
29120;SDS011;16191;49.548;8.658;2023-03-15T07:07:33;10.63;;;4.18;;
29120;SDS011;16191;49.548;8.658;2023-03-15T07:10:00;19.98;;;4.75;;
29120;SDS011;16191;49.548;8.658;2023-03-15T07:12:26;10.15;;;3.40;;
29120;SDS011;16191;49.548;8.658;2023-03-15T07:14:53;13.82;;;4.32;;
29120;SDS011;16191;49.548;8.658;2023-03-15T07:17:19;13.85;;;4.60;;
29120;SDS011;16191;49.548;8.658;2023-03-15T07:19:46;15.60;;;4.43;;
29120;SDS011;16191;49.548;8.658;2023-03-15T07:22:21;13.15;;;4.40;;
29120;SDS011;16191;49.548;8.658;2023-03-15T07:24:48;11.70;;;4.82;;
29120;SDS011;16191;49.548;8.658;2023-03-15T07:27:15;15.85;;;4.63;;
29120;SDS011;16191;49.548;8.658;2023-03-15T07:29:44;14.00;;;4.03;;
29120;SDS011;16191;49.548;8.658;2023-03-15T07:32:11;12.48;;;4.53;;
29120;SDS011;16191;49.548;8.658;2023-03-15T07:34:37;29.08;;;5.65;;
29120;SDS011;16191;49.548;8.658;2023-03-15T07:37:04;13.02;;;4.53;;
29120;SDS011;16191;49.548;8.658;2023-03-15T07:39:31;11.63;;;4.57;;
29120;SDS011;16191;49.548;8.658;2023-03-15T07:41:58;15.43;;;4.50;;
29120;SDS011;16191;49.548;8.658;2023-03-15T07:44:36;15.32;;;4.18;;
29120;SDS011;16191;49.548;8.658;2023-03-15T07:47:03;11.20;;;4.50;;
29120;SDS011;16191;49.548;8.658;2023-03-15T07:49:30;15.55;;;4.78;;
29120;SDS011;16191;49.548;8.658;2023-03-15T07:51:57;14.05;;;4.63;;
29120;SDS011;16191;49.548;8.658;2023-03-15T07:54:23;14.50;;;3.90;;
29120;SDS011;16191;49.548;8.658;2023-03-15T07:56:51;11.55;;;4.10;;
29120;SDS011;16191;49.548;8.658;2023-03-15T07:59:18;14.30;;;4.22;;
29120;SDS011;16191;49.548;8.658;2023-03-15T08:01:44;21.95;;;4.72;;
29120;SDS011;16191;49.548;8.658;2023-03-15T08:04:11;10.95;;;4.07;;
29120;SDS011;16191;49.548;8.658;2023-03-15T08:06:38;12.73;;;4.07;;
29120;SDS011;16191;49.548;8.658;2023-03-15T08:09:04;10.32;;;4.20;;
29120;SDS011;16191;49.548;8.658;2023-03-15T08:11:32;18.75;;;3.42;;
29120;SDS011;16191;49.548;8.658;2023-03-15T08:14:04;15.05;;;4.10;;
29120;SDS011;16191;49.548;8.658;2023-03-15T08:16:31;12.75;;;4.15;;
29120;SDS011;16191;49.548;8.658;2023-03-15T08:18:57;13.93;;;4.43;;
29120;SDS011;16191;49.548;8.658;2023-03-15T08:21:24;15.07;;;4.43;;
29120;SDS011;16191;49.548;8.658;2023-03-15T08:23:50;16.13;;;4.43;;
29120;SDS011;16191;49.548;8.658;2023-03-15T08:26:17;11.90;;;3.95;;
29120;SDS011;16191;49.548;8.658;2023-03-15T08:28:44;11.13;;;4.10;;
29120;SDS011;16191;49.548;8.658;2023-03-15T08:31:10;14.27;;;4.47;;
29120;SDS011;16191;49.548;8.658;2023-03-15T08:33:39;13.65;;;4.00;;
29120;SDS011;16191;49.548;8.658;2023-03-15T08:36:05;16.27;;;4.20;;
29120;SDS011;16191;49.548;8.658;2023-03-15T08:38:32;12.65;;;3.63;;
29120;SDS011;16191;49.548;8.658;2023-03-15T08:40:59;16.65;;;4.18;;
29120;SDS011;16191;49.548;8.658;2023-03-15T08:43:26;12.73;;;4.65;;
29120;SDS011;16191;49.548;8.658;2023-03-15T08:45:53;15.38;;;4.40;;
29120;SDS011;16191;49.548;8.658;2023-03-15T08:48:26;15.02;;;4.07;;
29120;SDS011;16191;49.548;8.658;2023-03-15T08:50:53;10.07;;;3.90;;
29120;SDS011;16191;49.548;8.658;2023-03-15T08:53:20;11.63;;;4.65;;
29120;SDS011;16191;49.548;8.658;2023-03-15T08:55:47;14.38;;;4.75;;
29120;SDS011;16191;49.548;8.658;2023-03-15T08:58:14;14.27;;;4.07;;
29120;SDS011;16191;49.548;8.658;2023-03-15T09:00:41;12.55;;;4.40;;
29120;SDS011;16191;49.548;8.658;2023-03-15T09:03:08;11.90;;;4.47;;
29120;SDS011;16191;49.548;8.658;2023-03-15T09:05:34;15.68;;;4.97;;
29120;SDS011;16191;49.548;8.658;2023-03-15T09:08:01;22.88;;;5.85;;
29120;SDS011;16191;49.548;8.658;2023-03-15T09:10:29;15.07;;;4.88;;
29120;SDS011;16191;49.548;8.658;2023-03-15T09:12:55;19.83;;;5.00;;
29120;SDS011;16191;49.548;8.658;2023-03-15T09:15:22;14.82;;;5.25;;
29120;SDS011;16191;49.548;8.658;2023-03-15T09:17:49;12.02;;;4.82;;
29120;SDS011;16191;49.548;8.658;2023-03-15T09:20:17;13.85;;;4.57;;
29120;SDS011;16191;49.548;8.658;2023-03-15T09:22:51;14.82;;;4.70;;
29120;SDS011;16191;49.548;8.658;2023-03-15T09:25:19;17.13;;;5.35;;
29120;SDS011;16191;49.548;8.658;2023-03-15T09:27:46;15.10;;;5.07;;
29120;SDS011;16191;49.548;8.658;2023-03-15T09:30:12;19.80;;;5.50;;
29120;SDS011;16191;49.548;8.658;2023-03-15T09:32:39;16.58;;;4.80;;
29120;SDS011;16191;49.548;8.658;2023-03-15T09:35:07;11.82;;;4.30;;
29120;SDS011;16191;49.548;8.658;2023-03-15T09:37:37;16.40;;;5.55;;
29120;SDS011;16191;49.548;8.658;2023-03-15T09:40:04;18.38;;;6.18;;
29120;SDS011;16191;49.548;8.658;2023-03-15T09:42:35;21.63;;;6.50;;
29120;SDS011;16191;49.548;8.658;2023-03-15T09:48:15;20.00;;;6.63;;
29120;SDS011;16191;49.548;8.658;2023-03-15T09:58:57;19.05;;;6.03;;
29120;SDS011;16191;49.548;8.658;2023-03-15T10:01:28;20.95;;;7.22;;
29120;SDS011;16191;49.548;8.658;2023-03-15T10:03:57;15.00;;;6.68;;
29120;SDS011;16191;49.548;8.658;2023-03-15T10:06:31;15.25;;;5.95;;
29120;SDS011;16191;49.548;8.658;2023-03-15T10:09:05;17.45;;;5.70;;
29120;SDS011;16191;49.548;8.658;2023-03-15T10:11:41;11.98;;;6.20;;
29120;SDS011;16191;49.548;8.658;2023-03-15T10:14:22;17.08;;;5.93;;
29120;SDS011;16191;49.548;8.658;2023-03-15T10:17:14;17.10;;;6.88;;
29120;SDS011;16191;49.548;8.658;2023-03-15T10:20:03;19.50;;;7.13;;
29120;SDS011;16191;49.548;8.658;2023-03-15T10:25:25;12.80;;;7.13;;
29120;SDS011;16191;49.548;8.658;2023-03-15T10:30:33;12.85;;;5.78;;
29120;SDS011;16191;49.548;8.658;2023-03-15T10:33:15;14.27;;;5.40;;
29120;SDS011;16191;49.548;8.658;2023-03-15T10:35:49;9.90;;;5.00;;
29120;SDS011;16191;49.548;8.658;2023-03-15T10:38:24;12.90;;;5.30;;
29120;SDS011;16191;49.548;8.658;2023-03-15T10:43:28;12.30;;;5.40;;
29120;SDS011;16191;49.548;8.658;2023-03-15T10:48:56;13.43;;;5.15;;
29120;SDS011;16191;49.548;8.658;2023-03-15T10:51:30;14.80;;;6.28;;
29120;SDS011;16191;49.548;8.658;2023-03-15T10:54:00;15.57;;;6.45;;
29120;SDS011;16191;49.548;8.658;2023-03-15T10:56:55;15.32;;;6.10;;
29120;SDS011;16191;49.548;8.658;2023-03-15T10:59:26;17.05;;;7.30;;
29120;SDS011;16191;49.548;8.658;2023-03-15T11:04:46;14.90;;;5.80;;
29120;SDS011;16191;49.548;8.658;2023-03-15T11:07:14;18.15;;;5.40;;
29120;SDS011;16191;49.548;8.658;2023-03-15T11:09:42;13.63;;;5.75;;
29120;SDS011;16191;49.548;8.658;2023-03-15T11:12:21;11.60;;;5.30;;
29120;SDS011;16191;49.548;8.658;2023-03-15T11:14:52;8.50;;;4.70;;
29120;SDS011;16191;49.548;8.658;2023-03-15T11:17:24;9.90;;;4.82;;
29120;SDS011;16191;49.548;8.658;2023-03-15T11:19:54;12.63;;;4.63;;
29120;SDS011;16191;49.548;8.658;2023-03-15T11:22:23;15.80;;;5.32;;
29120;SDS011;16191;49.548;8.658;2023-03-15T11:24:50;9.90;;;4.53;;
29120;SDS011;16191;49.548;8.658;2023-03-15T11:27:20;12.60;;;5.10;;
29120;SDS011;16191;49.548;8.658;2023-03-15T11:29:54;13.90;;;5.15;;
29120;SDS011;16191;49.548;8.658;2023-03-15T11:32:24;9.48;;;4.93;;
29120;SDS011;16191;49.548;8.658;2023-03-15T11:34:54;9.95;;;4.30;;
29120;SDS011;16191;49.548;8.658;2023-03-15T11:37:27;12.55;;;5.70;;
29120;SDS011;16191;49.548;8.658;2023-03-15T11:39:57;14.13;;;5.38;;
29120;SDS011;16191;49.548;8.658;2023-03-15T11:42:49;11.38;;;5.20;;
29120;SDS011;16191;49.548;8.658;2023-03-15T11:45:26;15.77;;;5.22;;
29120;SDS011;16191;49.548;8.658;2023-03-15T11:51:06;10.85;;;4.60;;
29120;SDS011;16191;49.548;8.658;2023-03-15T11:53:37;13.20;;;4.10;;
29120;SDS011;16191;49.548;8.658;2023-03-15T11:56:23;11.25;;;4.20;;
29120;SDS011;16191;49.548;8.658;2023-03-15T11:59:10;12.43;;;4.25;;
29120;SDS011;16191;49.548;8.658;2023-03-15T12:01:46;12.82;;;4.68;;
29120;SDS011;16191;49.548;8.658;2023-03-15T12:06:50;9.45;;;4.80;;
29120;SDS011;16191;49.548;8.658;2023-03-15T12:11:59;11.73;;;4.50;;
29120;SDS011;16191;49.548;8.658;2023-03-15T12:14:31;13.65;;;4.75;;
29120;SDS011;16191;49.548;8.658;2023-03-15T12:22:39;10.82;;;4.72;;
29120;SDS011;16191;49.548;8.658;2023-03-15T12:25:12;12.75;;;4.40;;
29120;SDS011;16191;49.548;8.658;2023-03-15T12:27:48;10.32;;;4.38;;
29120;SDS011;16191;49.548;8.658;2023-03-15T12:30:18;11.15;;;4.25;;
29120;SDS011;16191;49.548;8.658;2023-03-15T12:32:49;7.43;;;3.97;;
29120;SDS011;16191;49.548;8.658;2023-03-15T12:35:20;6.70;;;4.57;;
29120;SDS011;16191;49.548;8.658;2023-03-15T12:37:49;10.32;;;5.20;;
29120;SDS011;16191;49.548;8.658;2023-03-15T12:48:27;8.57;;;4.83;;
29120;SDS011;16191;49.548;8.658;2023-03-15T12:50:49;12.38;;;5.15;;
29120;SDS011;16191;49.548;8.658;2023-03-15T12:53:20;10.68;;;5.07;;
29120;SDS011;16191;49.548;8.658;2023-03-15T12:55:52;8.20;;;4.65;;
29120;SDS011;16191;49.548;8.658;2023-03-15T12:58:36;8.77;;;4.45;;
29120;SDS011;16191;49.548;8.658;2023-03-15T13:01:06;8.77;;;4.53;;
29120;SDS011;16191;49.548;8.658;2023-03-15T13:03:34;11.68;;;5.25;;
29120;SDS011;16191;49.548;8.658;2023-03-15T13:11:34;10.77;;;5.85;;
29120;SDS011;16191;49.548;8.658;2023-03-15T13:14:20;13.25;;;5.35;;
29120;SDS011;16191;49.548;8.658;2023-03-15T13:16:53;6.90;;;4.45;;
29120;SDS011;16191;49.548;8.658;2023-03-15T13:19:35;8.80;;;4.97;;
29120;SDS011;16191;49.548;8.658;2023-03-15T13:22:13;7.60;;;5.22;;
29120;SDS011;16191;49.548;8.658;2023-03-15T13:30:51;7.80;;;4.50;;
29120;SDS011;16191;49.548;8.658;2023-03-15T13:33:23;8.23;;;4.10;;
29120;SDS011;16191;49.548;8.658;2023-03-15T13:35:56;7.78;;;4.47;;
29120;SDS011;16191;49.548;8.658;2023-03-15T13:38:45;7.35;;;5.00;;
29120;SDS011;16191;49.548;8.658;2023-03-15T13:41:18;9.05;;;4.15;;
29120;SDS011;16191;49.548;8.658;2023-03-15T13:43:47;6.75;;;4.45;;
29120;SDS011;16191;49.548;8.658;2023-03-15T13:46:17;5.22;;;3.60;;
29120;SDS011;16191;49.548;8.658;2023-03-15T13:48:48;5.28;;;3.63;;
29120;SDS011;16191;49.548;8.658;2023-03-15T13:51:32;7.78;;;4.18;;
29120;SDS011;16191;49.548;8.658;2023-03-15T13:54:05;7.25;;;4.07;;
29120;SDS011;16191;49.548;8.658;2023-03-15T13:56:35;7.78;;;3.90;;
29120;SDS011;16191;49.548;8.658;2023-03-15T13:59:14;6.18;;;4.20;;
29120;SDS011;16191;49.548;8.658;2023-03-15T14:01:41;8.95;;;4.88;;
29120;SDS011;16191;49.548;8.658;2023-03-15T14:04:11;7.72;;;4.10;;
29120;SDS011;16191;49.548;8.658;2023-03-15T14:06:41;4.15;;;2.95;;
29120;SDS011;16191;49.548;8.658;2023-03-15T14:09:23;5.22;;;3.30;;
29120;SDS011;16191;49.548;8.658;2023-03-15T14:12:03;6.75;;;3.47;;
29120;SDS011;16191;49.548;8.658;2023-03-15T14:14:35;6.47;;;3.22;;
29120;SDS011;16191;49.548;8.658;2023-03-15T14:17:07;6.18;;;3.70;;
29120;SDS011;16191;49.548;8.658;2023-03-15T14:20:02;5.15;;;3.72;;
29120;SDS011;16191;49.548;8.658;2023-03-15T14:22:34;5.90;;;3.70;;
29120;SDS011;16191;49.548;8.658;2023-03-15T14:25:02;6.82;;;4.40;;
29120;SDS011;16191;49.548;8.658;2023-03-15T14:27:29;8.57;;;4.75;;
29120;SDS011;16191;49.548;8.658;2023-03-15T14:29:58;7.25;;;5.00;;
29120;SDS011;16191;49.548;8.658;2023-03-15T14:32:36;7.88;;;5.25;;
29120;SDS011;16191;49.548;8.658;2023-03-15T14:35:05;8.00;;;5.45;;
29120;SDS011;16191;49.548;8.658;2023-03-15T14:42:41;6.03;;;3.78;;
29120;SDS011;16191;49.548;8.658;2023-03-15T14:45:09;6.38;;;4.13;;
29120;SDS011;16191;49.548;8.658;2023-03-15T14:47:44;5.15;;;4.00;;
29120;SDS011;16191;49.548;8.658;2023-03-15T14:50:23;5.90;;;3.60;;
29120;SDS011;16191;49.548;8.658;2023-03-15T14:52:52;5.50;;;3.45;;
29120;SDS011;16191;49.548;8.658;2023-03-15T14:55:21;6.63;;;3.63;;
29120;SDS011;16191;49.548;8.658;2023-03-15T14:57:49;7.80;;;5.00;;
29120;SDS011;16191;49.548;8.658;2023-03-15T15:00:16;7.35;;;5.00;;
29120;SDS011;16191;49.548;8.658;2023-03-15T15:02:47;8.35;;;4.40;;
29120;SDS011;16191;49.548;8.658;2023-03-15T15:05:23;12.98;;;4.60;;
29120;SDS011;16191;49.548;8.658;2023-03-15T15:07:52;5.68;;;4.15;;
29120;SDS011;16191;49.548;8.658;2023-03-15T15:10:31;7.38;;;4.57;;
29120;SDS011;16191;49.548;8.658;2023-03-15T15:13:00;7.78;;;4.82;;
29120;SDS011;16191;49.548;8.658;2023-03-15T15:15:32;8.93;;;4.65;;
29120;SDS011;16191;49.548;8.658;2023-03-15T15:18:16;7.70;;;4.63;;
29120;SDS011;16191;49.548;8.658;2023-03-15T15:20:44;7.07;;;4.95;;
29120;SDS011;16191;49.548;8.658;2023-03-15T15:23:18;4.82;;;3.28;;
29120;SDS011;16191;49.548;8.658;2023-03-15T15:25:55;3.45;;;2.70;;
29120;SDS011;16191;49.548;8.658;2023-03-15T15:28:27;3.75;;;2.40;;
29120;SDS011;16191;49.548;8.658;2023-03-15T15:31:03;3.75;;;2.28;;
29120;SDS011;16191;49.548;8.658;2023-03-15T15:33:32;4.63;;;2.67;;
29120;SDS011;16191;49.548;8.658;2023-03-15T15:35:59;4.38;;;2.20;;
29120;SDS011;16191;49.548;8.658;2023-03-15T15:38:28;5.80;;;2.78;;
29120;SDS011;16191;49.548;8.658;2023-03-15T15:40:58;3.97;;;2.45;;
29120;SDS011;16191;49.548;8.658;2023-03-15T15:43:25;5.32;;;1.73;;
29120;SDS011;16191;49.548;8.658;2023-03-15T15:45:51;2.63;;;1.80;;
29120;SDS011;16191;49.548;8.658;2023-03-15T15:48:18;2.45;;;1.75;;
29120;SDS011;16191;49.548;8.658;2023-03-15T15:50:44;3.65;;;1.65;;
29120;SDS011;16191;49.548;8.658;2023-03-15T15:53:11;1.88;;;1.55;;
29120;SDS011;16191;49.548;8.658;2023-03-15T15:55:42;3.88;;;1.80;;
29120;SDS011;16191;49.548;8.658;2023-03-15T15:58:10;4.78;;;1.40;;
29120;SDS011;16191;49.548;8.658;2023-03-15T16:00:37;1.38;;;1.17;;
29120;SDS011;16191;49.548;8.658;2023-03-15T16:03:09;3.65;;;1.40;;
29120;SDS011;16191;49.548;8.658;2023-03-15T16:05:42;1.38;;;1.27;;
29120;SDS011;16191;49.548;8.658;2023-03-15T16:08:13;2.55;;;1.33;;
29120;SDS011;16191;49.548;8.658;2023-03-15T16:10:49;1.95;;;1.45;;
29120;SDS011;16191;49.548;8.658;2023-03-15T16:13:16;3.38;;;1.70;;
29120;SDS011;16191;49.548;8.658;2023-03-15T16:15:43;1.98;;;1.38;;
29120;SDS011;16191;49.548;8.658;2023-03-15T16:18:10;3.42;;;1.90;;